createdAt,value
2018-11-25T00:02:12.047Z,34.33
2018-11-25T00:04:44.046Z,36.67
2018-11-25T00:07:16.063Z,33.33
2018-11-25T00:09:47.949Z,35.33
2018-11-25T00:12:20.757Z,37.10
2018-11-25T00:14:53.338Z,43.23
2018-11-25T00:17:25.498Z,39.27
2018-11-25T00:19:57.378Z,39.57
2018-11-25T00:22:29.708Z,41.90
2018-11-25T00:25:01.601Z,37.77
2018-11-25T00:27:34.247Z,37.80
2018-11-25T00:30:07.843Z,34.23
2018-11-25T00:32:40.195Z,49.27
2018-11-25T00:35:14.585Z,42.93
2018-11-25T00:37:48.267Z,37.77
2018-11-25T00:40:18.762Z,36.33
2018-11-25T00:42:50.792Z,33.87
2018-11-25T00:45:23.052Z,35.40
2018-11-25T00:47:55.219Z,36.87
2018-11-25T00:50:27.349Z,34.83
2018-11-25T00:52:59.245Z,35.30
2018-11-25T00:55:31.335Z,37.70
2018-11-25T00:58:03.680Z,33.57
2018-11-25T01:00:35.947Z,37.43
2018-11-25T01:03:08.467Z,34.47
2018-11-25T01:05:40.717Z,32.93
2018-11-25T01:08:12.793Z,32.40
2018-11-25T01:10:45.320Z,31.50
2018-11-25T01:13:17.390Z,31.10
2018-11-25T01:15:49.274Z,33.37
2018-11-25T01:18:21.382Z,32.30
2018-11-25T01:20:53.593Z,29.93
2018-11-25T01:23:26.668Z,33.13
2018-11-25T01:25:58.839Z,32.43
2018-11-25T01:28:31.409Z,31.83
2018-11-25T01:31:03.585Z,30.83
2018-11-25T01:33:36.058Z,30.03
2018-11-25T01:36:08.167Z,30.40
2018-11-25T01:38:40.498Z,28.77
2018-11-25T01:41:13.048Z,30.87
2018-11-25T01:43:45.283Z,30.27
2018-11-25T01:46:17.370Z,30.67
2018-11-25T01:48:49.437Z,30.77
2018-11-25T01:51:21.547Z,30.10
2018-11-25T01:53:53.520Z,31.87
2018-11-25T01:56:25.442Z,32.40
2018-11-25T01:58:57.518Z,31.13
2018-11-25T02:01:29.825Z,32.07
2018-11-25T02:04:16.481Z,31.23
2018-11-25T02:06:48.560Z,31.80
2018-11-25T02:09:20.869Z,32.53
2018-11-25T02:11:52.929Z,30.77
2018-11-25T02:14:24.845Z,33.53
2018-11-25T02:16:56.982Z,35.00
2018-11-25T02:19:29.012Z,30.77
2018-11-25T02:22:01.004Z,31.57
2018-11-25T02:24:32.802Z,30.30
2018-11-25T02:27:05.054Z,30.03
2018-11-25T02:29:37.245Z,30.23
2018-11-25T02:32:09.394Z,31.53
2018-11-25T02:34:41.829Z,31.23
2018-11-25T02:37:14.393Z,33.93
2018-11-25T02:39:46.781Z,36.30
2018-11-25T02:42:19.059Z,34.67
2018-11-25T02:44:51.353Z,34.10
2018-11-25T02:47:23.667Z,32.13
2018-11-25T02:49:55.968Z,30.70
2018-11-25T02:52:28.661Z,31.87
2018-11-25T02:55:01.291Z,41.50
2018-11-25T02:57:33.596Z,40.70
2018-11-25T03:00:05.882Z,37.53
2018-11-25T03:02:38.069Z,43.80
2018-11-25T03:05:10.109Z,42.33
2018-11-25T03:07:42.403Z,41.53
2018-11-25T03:10:14.425Z,36.97
2018-11-25T03:12:46.524Z,37.23
2018-11-25T03:15:19.805Z,33.37
2018-11-25T03:17:51.973Z,31.80
2018-11-25T03:20:24.020Z,28.07
2018-11-25T03:22:56.149Z,29.90
2018-11-25T03:25:28.587Z,31.60
2018-11-25T03:28:00.681Z,31.63
2018-11-25T03:30:32.682Z,33.83
2018-11-25T03:33:04.941Z,34.03
2018-11-25T03:35:36.992Z,33.50
2018-11-25T03:38:09.400Z,34.03
2018-11-25T03:40:41.407Z,33.07
2018-11-25T03:43:13.546Z,32.70
2018-11-25T03:45:45.917Z,33.13
2018-11-25T03:48:18.498Z,33.83
2018-11-25T03:50:51.088Z,32.40
2018-11-25T03:53:23.140Z,34.50
2018-11-25T03:55:55.567Z,31.20
2018-11-25T03:58:27.890Z,33.50
2018-11-25T04:01:00.342Z,32.23
2018-11-25T04:03:32.388Z,33.23
2018-11-25T04:06:04.280Z,38.10
2018-11-25T04:08:36.421Z,33.67
2018-11-25T04:11:09.677Z,31.70
2018-11-25T04:13:41.717Z,33.57
2018-11-25T04:16:14.033Z,41.23
2018-11-25T04:18:46.088Z,44.73
2018-11-25T04:21:18.200Z,36.03
2018-11-25T04:23:51.021Z,32.57
2018-11-25T04:26:22.991Z,35.10
2018-11-25T04:28:54.878Z,35.43
2018-11-25T04:31:26.930Z,33.67
2018-11-25T04:33:59.186Z,31.23
2018-11-25T04:36:31.296Z,31.80
2018-11-25T04:39:03.742Z,31.30
2018-11-25T04:41:35.960Z,29.60
2018-11-25T04:44:08.862Z,28.53
2018-11-25T04:46:40.886Z,38.23
2018-11-25T04:49:12.981Z,32.23
2018-11-25T04:51:45.074Z,32.27
2018-11-25T04:54:16.942Z,35.10
2018-11-25T04:56:48.812Z,33.67
2018-11-25T04:59:20.874Z,33.97
2018-11-25T05:01:53.355Z,35.90
2018-11-25T05:04:25.321Z,34.27
2018-11-25T05:06:57.281Z,36.80
2018-11-25T05:09:29.099Z,35.80
2018-11-25T05:12:01.446Z,40.80
2018-11-25T05:14:33.679Z,37.30
2018-11-25T05:17:05.508Z,39.10
2018-11-25T05:19:37.215Z,36.47
2018-11-25T05:22:09.297Z,36.97
2018-11-25T05:24:41.153Z,35.33
2018-11-25T05:27:13.421Z,34.30
2018-11-25T05:29:45.431Z,35.53
2018-11-25T05:32:17.307Z,35.93
2018-11-25T05:34:49.352Z,37.33
2018-11-25T05:37:21.194Z,34.60
2018-11-25T05:39:53.527Z,38.23
2018-11-25T05:42:26.486Z,38.33
2018-11-25T05:44:58.558Z,34.43
2018-11-25T05:47:30.777Z,37.70
2018-11-25T05:50:02.929Z,35.20
2018-11-25T05:52:35.798Z,40.10
2018-11-25T05:55:09.556Z,37.10
2018-11-25T05:57:41.557Z,37.17
2018-11-25T06:00:37.677Z,35.77
2018-11-25T06:03:10.338Z,40.20
2018-11-25T06:05:42.349Z,38.17
2018-11-25T06:08:14.370Z,39.13
2018-11-25T06:10:45.418Z,36.10
2018-11-25T06:13:16.777Z,37.53
2018-11-25T06:15:47.839Z,39.10
2018-11-25T06:18:18.895Z,42.97
2018-11-25T06:20:49.881Z,38.60
2018-11-25T06:23:21.022Z,37.00
2018-11-25T06:25:52.270Z,38.93
2018-11-25T06:28:23.182Z,38.40
2018-11-25T06:30:54.246Z,37.70
2018-11-25T06:33:25.343Z,35.47
2018-11-25T06:35:56.214Z,34.43
2018-11-25T06:38:35.925Z,37.73
2018-11-25T06:41:07.241Z,38.47
2018-11-25T06:43:38.221Z,38.83
2018-11-25T06:46:11.992Z,47.70
2018-11-25T06:48:43.125Z,43.67
2018-11-25T06:51:14.111Z,39.03
2018-11-25T06:53:45.032Z,41.07
2018-11-25T06:56:16.018Z,41.60
2018-11-25T06:58:47.210Z,43.07
2018-11-25T07:01:18.112Z,37.80
2018-11-25T07:03:49.129Z,34.97
2018-11-25T07:06:20.184Z,40.17
2018-11-25T07:08:51.285Z,39.77
2018-11-25T07:11:22.297Z,41.40
2018-11-25T07:13:53.402Z,39.03
2018-11-25T07:16:24.384Z,43.13
2018-11-25T07:18:55.467Z,43.40
2018-11-25T07:21:26.584Z,39.20
2018-11-25T07:23:57.864Z,42.10
2018-11-25T07:26:29.292Z,40.20
2018-11-25T07:29:00.468Z,38.10
2018-11-25T07:31:31.526Z,42.10
2018-11-25T07:34:02.733Z,41.60
2018-11-25T07:36:33.910Z,40.67
2018-11-25T07:39:06.498Z,40.10
2018-11-25T07:41:37.729Z,43.07
2018-11-25T07:44:09.723Z,44.27
2018-11-25T07:46:40.980Z,44.60
2018-11-25T07:49:12.249Z,43.03
2018-11-25T07:51:43.229Z,40.60
2018-11-25T07:54:14.367Z,40.50
2018-11-25T07:56:45.474Z,44.37
2018-11-25T07:59:16.534Z,42.57
2018-11-25T08:01:47.607Z,39.63
2018-11-25T08:04:18.916Z,38.90
2018-11-25T08:06:50.046Z,37.13
2018-11-25T08:09:21.329Z,42.37
2018-11-25T08:11:52.302Z,42.00
2018-11-25T08:14:23.191Z,42.90
2018-11-25T08:16:55.141Z,43.13
2018-11-25T08:19:26.321Z,43.43
2018-11-25T08:21:57.368Z,42.17
2018-11-25T08:24:28.717Z,46.50
2018-11-25T08:26:59.982Z,46.70
2018-11-25T08:29:31.464Z,48.67
2018-11-25T08:32:02.556Z,47.97
2018-11-25T08:34:33.645Z,45.10
2018-11-25T08:37:04.865Z,45.23
2018-11-25T08:39:35.727Z,45.67
2018-11-25T08:42:06.988Z,47.13
2018-11-25T08:44:38.014Z,45.90
2018-11-25T08:47:09.506Z,49.13
2018-11-25T08:49:40.303Z,48.97
2018-11-25T08:52:11.614Z,49.77
2018-11-25T08:54:42.671Z,52.30
2018-11-25T08:57:13.916Z,52.00
2018-11-25T08:59:45.446Z,61.67
2018-11-25T09:02:16.385Z,48.03
2018-11-25T09:04:47.467Z,50.37
2018-11-25T09:07:18.403Z,49.70
2018-11-25T09:09:49.456Z,51.00
2018-11-25T09:12:20.452Z,49.03
2018-11-25T09:14:51.592Z,51.03
2018-11-25T09:17:22.594Z,51.90
2018-11-25T09:19:53.461Z,47.33
2018-11-25T09:22:24.388Z,49.30
2018-11-25T09:24:55.408Z,54.83
2018-11-25T09:27:26.611Z,53.83
2018-11-25T09:29:57.760Z,52.00
2018-11-25T09:32:28.927Z,52.73
2018-11-25T09:35:00.177Z,46.63
2018-11-25T09:37:31.297Z,48.10
2018-11-25T09:40:02.490Z,48.80
2018-11-25T09:42:33.414Z,47.73
2018-11-25T09:45:04.646Z,50.60
2018-11-25T09:47:35.703Z,48.00
2018-11-25T09:50:09.637Z,48.60
2018-11-25T09:52:41.032Z,48.27
2018-11-25T09:55:16.549Z,46.70
2018-11-25T09:57:49.809Z,44.93
2018-11-25T10:00:29.601Z,47.27
2018-11-25T10:03:01.043Z,46.40
2018-11-25T10:05:32.080Z,45.03
2018-11-25T10:08:03.773Z,44.53
2018-11-25T10:10:34.976Z,47.73
2018-11-25T10:13:06.702Z,43.00
2018-11-25T10:15:38.107Z,45.63
2018-11-25T10:18:10.376Z,46.87
2018-11-25T10:20:41.862Z,45.40
2018-11-25T10:23:13.035Z,47.83
2018-11-25T10:25:45.128Z,46.03
2018-11-25T10:28:16.157Z,51.30
2018-11-25T10:30:47.603Z,46.57
2018-11-25T10:33:18.802Z,45.13
2018-11-25T10:35:50.394Z,45.60
2018-11-25T10:38:22.544Z,46.50
2018-11-25T10:40:53.812Z,44.87
2018-11-25T10:43:26.116Z,44.63
2018-11-25T10:45:59.562Z,45.53
2018-11-25T10:48:31.018Z,51.70
2018-11-25T10:51:02.300Z,47.47
2018-11-25T10:53:33.469Z,42.97
2018-11-25T10:56:04.929Z,43.23
2018-11-25T10:58:37.834Z,40.73
2018-11-25T11:01:13.974Z,43.03
2018-11-25T11:03:50.143Z,46.50
2018-11-25T11:07:30.335Z,41.67
2018-11-25T11:10:01.913Z,40.53
2018-11-25T11:12:33.469Z,42.43
2018-11-25T11:15:06.359Z,45.23
2018-11-25T11:17:37.617Z,45.70
2018-11-25T11:20:11.094Z,45.93
2018-11-25T11:22:42.272Z,45.90
2018-11-25T11:25:13.908Z,48.53
2018-11-25T11:27:45.452Z,40.97
2018-11-25T11:30:17.250Z,42.63
2018-11-25T11:32:50.608Z,39.97
2018-11-25T11:35:22.221Z,42.90
2018-11-25T11:37:53.729Z,43.33
2018-11-25T11:40:25.270Z,42.70
2018-11-25T11:42:56.591Z,44.27
2018-11-25T11:45:29.291Z,42.40
2018-11-25T11:48:00.941Z,42.93
2018-11-25T11:50:32.550Z,43.37
2018-11-25T11:53:03.871Z,42.97
2018-11-25T11:55:35.069Z,42.77
2018-11-25T11:58:06.522Z,53.70
2018-11-25T12:00:37.829Z,46.13
2018-11-25T12:03:09.194Z,46.10
2018-11-25T12:05:40.339Z,43.67
2018-11-25T12:08:11.875Z,40.27
2018-11-25T12:10:43.125Z,39.67
2018-11-25T12:13:14.460Z,44.57
2018-11-25T12:15:45.933Z,43.53
2018-11-25T12:18:17.322Z,33.50
2018-11-25T12:20:48.771Z,33.37
2018-11-25T12:23:20.341Z,31.37
2018-11-25T12:25:51.867Z,31.43
2018-11-25T12:28:23.233Z,24.53
2018-11-25T12:30:54.398Z,28.53
2018-11-25T12:33:25.821Z,31.80
2018-11-25T12:35:57.256Z,31.80
2018-11-25T12:38:28.453Z,32.57
2018-11-25T12:41:00.007Z,33.47
2018-11-25T12:43:31.267Z,31.93
2018-11-25T12:46:03.647Z,33.43
2018-11-25T12:48:44.450Z,31.43
2018-11-25T12:51:15.866Z,32.53
2018-11-25T12:53:47.109Z,32.83
2018-11-25T12:56:18.393Z,33.13
2018-11-25T12:58:49.864Z,34.50
2018-11-25T13:01:21.394Z,42.97
2018-11-25T13:03:53.025Z,33.10
2018-11-25T13:06:24.311Z,31.90
2018-11-25T13:08:55.683Z,37.67
2018-11-25T13:11:26.890Z,30.37
2018-11-25T13:13:58.032Z,60.87
2018-11-25T13:16:29.340Z,28.13
2018-11-25T13:19:01.463Z,26.27
2018-11-25T13:21:32.680Z,30.33
2018-11-25T13:24:04.189Z,28.47
2018-11-25T13:26:35.844Z,26.67
2018-11-25T13:29:08.148Z,23.73
2018-11-25T13:31:39.797Z,26.57
2018-11-25T13:34:10.823Z,29.53
2018-11-25T13:36:42.053Z,26.63
2018-11-25T13:39:13.579Z,25.77
2018-11-25T13:41:44.824Z,21.87
2018-11-25T13:44:17.255Z,22.57
2018-11-25T13:46:48.735Z,21.97
2018-11-25T13:49:20.050Z,22.20
2018-11-25T13:51:52.206Z,22.67
2018-11-25T13:54:23.717Z,23.70
2018-11-25T13:56:55.815Z,24.83
2018-11-25T13:59:27.548Z,23.37
2018-11-25T14:01:59.059Z,22.80
2018-11-25T14:04:30.536Z,24.63
2018-11-25T14:07:01.938Z,26.07
2018-11-25T14:09:33.933Z,25.10
2018-11-25T14:12:05.461Z,28.03
2018-11-25T14:14:36.777Z,23.67
2018-11-25T14:17:08.282Z,32.47
2018-11-25T14:19:39.579Z,32.20
2018-11-25T14:22:11.121Z,35.40
2018-11-25T14:24:42.332Z,33.23
2018-11-25T14:27:13.744Z,28.70
2018-11-25T14:29:45.218Z,28.80
2018-11-25T14:32:16.545Z,29.37
2018-11-25T14:34:48.002Z,33.17
2018-11-25T14:37:19.517Z,35.57
2018-11-25T14:39:50.923Z,38.80
2018-11-25T14:42:23.633Z,36.13
2018-11-25T14:44:54.934Z,36.80
2018-11-25T14:47:27.030Z,32.50
2018-11-25T14:49:59.184Z,32.03
2018-11-25T14:52:30.736Z,28.90
2018-11-25T14:55:02.396Z,37.07
2018-11-25T14:57:33.765Z,37.73
2018-11-25T15:00:13.776Z,38.33
2018-11-25T15:02:46.916Z,34.77
2018-11-25T15:05:40.853Z,33.33
2018-11-25T15:08:14.474Z,28.37
2018-11-25T15:10:46.053Z,31.97
2018-11-25T15:13:17.428Z,34.33
2018-11-25T15:15:48.652Z,46.90
2018-11-25T15:18:20.115Z,48.47
2018-11-25T15:20:51.598Z,64.93
2018-11-25T15:23:22.907Z,86.57
2018-11-25T15:25:56.543Z,76.87
2018-11-25T15:28:27.810Z,59.83
2018-11-25T15:30:59.077Z,54.03
2018-11-25T15:33:30.553Z,61.27
2018-11-25T15:36:02.172Z,67.00
2018-11-25T15:38:33.736Z,65.23
2018-11-25T15:41:05.694Z,62.03
2018-11-25T15:43:36.928Z,73.03
2018-11-25T15:46:09.788Z,64.40
2018-11-25T15:48:39.996Z,68.17
2018-11-25T15:51:11.433Z,69.40
2018-11-25T15:53:43.911Z,60.93
2018-11-25T15:56:15.306Z,63.53
2018-11-25T15:58:46.557Z,61.23
2018-11-25T16:01:17.887Z,56.17
2018-11-25T16:03:49.339Z,62.53
2018-11-25T16:06:38.970Z,56.90
2018-11-25T16:09:11.374Z,57.27
2018-11-25T16:11:42.559Z,59.97
2018-11-25T16:14:13.616Z,65.57
2018-11-25T16:16:46.879Z,63.07
2018-11-25T16:19:19.342Z,60.60
2018-11-25T16:21:50.700Z,59.03
2018-11-25T16:24:22.888Z,59.03
2018-11-25T16:26:54.288Z,58.20
2018-11-25T16:29:28.152Z,54.50
2018-11-25T16:31:59.371Z,53.20
2018-11-25T16:34:30.575Z,53.83
2018-11-25T16:37:03.452Z,54.93
2018-11-25T16:39:35.020Z,53.40
2018-11-25T16:42:06.726Z,52.97
2018-11-25T16:44:38.418Z,53.57
2018-11-25T16:47:10.309Z,69.63
2018-11-25T16:49:41.967Z,75.07
2018-11-25T16:52:14.100Z,69.00
2018-11-25T16:54:45.716Z,64.03
2018-11-25T16:57:17.683Z,60.17
2018-11-25T16:59:49.119Z,72.67
2018-11-25T17:02:20.465Z,219.33
2018-11-25T17:04:52.233Z,63.27
2018-11-25T17:07:23.745Z,68.10
2018-11-25T17:09:55.311Z,56.77
2018-11-25T17:12:27.978Z,55.53
2018-11-25T17:14:59.742Z,67.13
2018-11-25T17:17:32.629Z,61.07
2018-11-25T17:20:04.425Z,62.73
2018-11-25T17:22:35.764Z,63.67
2018-11-25T17:25:11.961Z,56.57
2018-11-25T17:27:42.791Z,63.17
2018-11-25T17:30:21.923Z,56.90
2018-11-25T17:32:53.398Z,56.40
2018-11-25T17:35:29.164Z,52.87
2018-11-25T17:38:00.867Z,52.30
2018-11-25T17:40:32.306Z,53.60
2018-11-25T17:43:03.992Z,58.13
2018-11-25T17:45:35.789Z,55.03
2018-11-25T17:48:07.852Z,64.57
2018-11-25T17:50:50.345Z,62.40
2018-11-25T17:53:21.895Z,64.60
2018-11-25T17:55:53.909Z,83.73
2018-11-25T17:58:27.450Z,64.73
2018-11-25T18:01:02.105Z,53.00
2018-11-25T18:03:36.102Z,57.50
2018-11-25T18:06:07.969Z,69.33
2018-11-25T18:08:40.387Z,62.13
2018-11-25T18:11:13.392Z,58.70
2018-11-25T18:13:45.885Z,67.93
2018-11-25T18:16:20.086Z,69.30
2018-11-25T18:19:00.101Z,84.77
2018-11-25T18:21:35.402Z,77.90
2018-11-25T18:24:07.763Z,62.20
2018-11-25T18:26:40.259Z,58.50
2018-11-25T18:29:12.859Z,64.33
2018-11-25T18:31:44.565Z,67.03
2018-11-25T18:34:17.092Z,75.00
2018-11-25T18:36:49.252Z,76.57
2018-11-25T18:39:21.178Z,86.83
2018-11-25T18:41:52.314Z,86.43
2018-11-25T18:44:23.647Z,84.23
2018-11-25T18:46:55.168Z,75.63
2018-11-25T18:49:26.418Z,75.87
2018-11-25T18:52:04.909Z,80.33
2018-11-25T18:54:30.082Z,74.60
2018-11-25T18:57:02.942Z,67.70
2018-11-25T18:59:34.590Z,72.43
2018-11-25T19:02:13.500Z,64.40
2018-11-25T19:04:44.957Z,60.20
2018-11-25T19:07:17.269Z,47.30
2018-11-25T19:09:48.503Z,43.33
2018-11-25T19:12:19.708Z,50.00
2018-11-25T19:14:51.053Z,46.70
2018-11-25T19:17:22.220Z,70.80
2018-11-25T19:19:53.534Z,61.60
2018-11-25T19:22:25.354Z,47.57
2018-11-25T19:24:56.893Z,57.93
2018-11-25T19:27:28.274Z,52.13
2018-11-25T19:29:59.453Z,47.67
2018-11-25T19:32:31.812Z,46.77
2018-11-25T19:35:04.051Z,48.00
2018-11-25T19:37:35.365Z,52.73
2018-11-25T19:40:11.045Z,58.83
2018-11-25T19:42:43.162Z,50.63
2018-11-25T19:45:35.734Z,44.70
2018-11-25T19:48:07.612Z,41.57
2018-11-25T19:50:40.429Z,43.97
2018-11-25T19:53:12.880Z,49.13
2018-11-25T19:55:44.888Z,49.23
2018-11-25T19:58:16.238Z,49.57
2018-11-25T20:00:47.746Z,51.20
2018-11-25T20:03:19.111Z,49.73
2018-11-25T20:05:58.151Z,50.33
2018-11-25T20:08:31.727Z,47.57
2018-11-25T20:11:03.271Z,54.93
2018-11-25T20:13:34.653Z,50.27
2018-11-25T20:16:37.464Z,40.83
2018-11-25T20:19:13.053Z,39.63
2018-11-25T20:22:47.713Z,66.33
2018-11-25T20:25:19.735Z,38.10
2018-11-25T20:27:52.500Z,36.93
2018-11-25T20:30:30.971Z,30.80
2018-11-25T20:33:07.193Z,28.87
2018-11-25T20:35:38.829Z,38.10
2018-11-25T20:38:14.800Z,26.07
2018-11-25T20:40:46.108Z,20.00
2018-11-25T20:43:17.531Z,20.83
2018-11-25T20:45:53.815Z,34.23
2018-11-25T20:48:25.221Z,28.13
2018-11-25T20:50:56.420Z,23.40
2018-11-25T20:53:32.588Z,25.00
2018-11-25T20:56:03.692Z,18.90
2018-11-25T20:58:35.042Z,19.10
2018-11-25T21:01:06.791Z,21.60
2018-11-25T21:03:38.000Z,26.30
2018-11-25T21:06:09.243Z,20.50
2018-11-25T21:08:40.585Z,24.37
2018-11-25T21:11:11.768Z,23.50
2018-11-25T21:13:43.285Z,24.63
2018-11-25T21:16:14.428Z,22.10
2018-11-25T21:18:45.449Z,21.60
2018-11-25T21:21:16.969Z,22.43
2018-11-25T21:23:48.066Z,24.37
2018-11-25T21:26:19.238Z,24.17
2018-11-25T21:28:50.397Z,22.93
2018-11-25T21:31:21.611Z,25.80
2018-11-25T21:33:52.939Z,23.83
2018-11-25T21:36:24.332Z,23.00
2018-11-25T21:38:55.346Z,22.33
2018-11-25T21:41:26.456Z,21.77
2018-11-25T21:43:57.546Z,24.30
2018-11-25T21:46:28.542Z,22.23
2018-11-25T21:48:59.768Z,23.20
2018-11-25T21:51:30.676Z,23.43
2018-11-25T21:54:01.808Z,23.63
2018-11-25T21:56:33.001Z,23.07
2018-11-25T21:59:04.097Z,22.17
2018-11-25T22:01:35.388Z,21.43
2018-11-25T22:04:06.801Z,21.03
2018-11-25T22:06:37.941Z,21.93
2018-11-25T22:09:11.401Z,23.57
2018-11-25T22:11:42.437Z,23.67
2018-11-25T22:14:15.237Z,23.90
2018-11-25T22:16:46.411Z,23.67
2018-11-25T22:19:17.426Z,27.67
2018-11-25T22:21:48.815Z,24.23
2018-11-25T22:24:19.963Z,23.87
2018-11-25T22:26:51.165Z,24.57
2018-11-25T22:29:22.196Z,23.63
2018-11-25T22:31:53.367Z,26.97
2018-11-25T22:34:24.359Z,28.30
2018-11-25T22:36:55.293Z,26.77
2018-11-25T22:39:26.411Z,27.60
2018-11-25T22:41:57.622Z,26.43
2018-11-25T22:44:28.469Z,24.67
2018-11-25T22:46:59.412Z,25.13
2018-11-25T22:49:30.318Z,26.83
2018-11-25T22:52:01.286Z,27.90
2018-11-25T22:54:32.153Z,26.40
2018-11-25T22:57:03.302Z,27.17
2018-11-25T22:59:34.236Z,27.97
2018-11-25T23:02:05.277Z,28.23
2018-11-25T23:04:52.787Z,26.87
2018-11-25T23:07:23.764Z,24.23
2018-11-25T23:09:54.817Z,25.70
2018-11-25T23:12:25.791Z,26.33
2018-11-25T23:14:56.698Z,25.73
2018-11-25T23:17:27.715Z,24.73
2018-11-25T23:19:58.656Z,26.83
2018-11-25T23:22:29.582Z,24.83
2018-11-25T23:25:00.589Z,24.50
2018-11-25T23:27:31.518Z,26.17
2018-11-25T23:30:02.507Z,25.03
2018-11-25T23:32:33.518Z,25.20
2018-11-25T23:35:04.802Z,25.63
2018-11-25T23:37:35.635Z,25.83
2018-11-25T23:40:07.918Z,26.03
2018-11-25T23:42:39.091Z,24.83
2018-11-25T23:45:13.334Z,26.37
2018-11-25T23:47:44.330Z,25.33
2018-11-25T23:50:16.128Z,23.57
2018-11-25T23:52:48.860Z,24.70
2018-11-25T23:55:19.634Z,26.17
2018-11-25T23:57:50.700Z,24.97
